createdAt,value
2022-11-16T00:00:05.755Z,9.40
2022-11-16T00:01:03.116Z,9.30
2022-11-16T00:02:03.123Z,9.30
2022-11-16T00:03:03.076Z,9.30
2022-11-16T00:04:03.149Z,9.30
2022-11-16T00:05:03.210Z,9.30
2022-11-16T00:06:03.248Z,9.30
2022-11-16T00:07:03.370Z,9.30
2022-11-16T00:08:03.351Z,9.30
2022-11-16T00:09:03.513Z,9.30
2022-11-16T00:10:03.575Z,9.30
2022-11-16T00:11:02.676Z,9.30
2022-11-16T00:12:02.735Z,9.30
2022-11-16T00:13:02.699Z,9.30
2022-11-16T00:14:02.731Z,9.30
2022-11-16T00:15:02.832Z,9.30
2022-11-16T00:16:02.979Z,9.30
2022-11-16T00:17:02.948Z,9.30
2022-11-16T00:18:02.917Z,9.30
2022-11-16T00:19:02.997Z,9.40
2022-11-16T00:20:03.057Z,9.30
2022-11-16T00:21:03.259Z,9.40
2022-11-16T00:22:03.272Z,9.30
2022-11-16T00:23:03.229Z,9.30
2022-11-16T00:24:03.263Z,9.30
2022-11-16T00:25:03.280Z,9.30
2022-11-16T00:26:03.188Z,9.30
2022-11-16T00:27:03.327Z,9.30
2022-11-16T00:28:03.348Z,9.30
2022-11-16T00:29:03.297Z,9.30
2022-11-16T00:30:03.390Z,9.20
2022-11-16T00:31:03.405Z,9.30
2022-11-16T00:32:03.658Z,9.20
2022-11-16T00:33:03.582Z,9.20
2022-11-16T00:34:03.499Z,9.20
2022-11-16T00:35:03.590Z,9.20
2022-11-16T00:38:03.332Z,9.20
2022-11-16T00:39:03.499Z,9.20
2022-11-16T00:40:03.568Z,9.20
2022-11-16T00:41:02.697Z,9.20
2022-11-16T00:42:02.800Z,9.20
2022-11-16T00:43:02.769Z,9.20
2022-11-16T00:44:02.857Z,9.20
2022-11-16T00:45:02.818Z,9.20
2022-11-16T00:46:02.889Z,9.20
2022-11-16T00:47:02.960Z,9.20
2022-11-16T00:48:03.047Z,9.20
2022-11-16T00:49:03.065Z,9.30
2022-11-16T00:50:02.949Z,9.30
2022-11-16T00:51:02.987Z,9.30
2022-11-16T00:52:03.045Z,9.30
2022-11-16T00:53:03.178Z,9.30
2022-11-16T00:54:03.131Z,9.30
2022-11-16T00:55:03.173Z,9.30
2022-11-16T00:56:03.299Z,9.30
2022-11-16T00:57:03.689Z,9.30
2022-11-16T00:58:02.755Z,9.30
2022-11-16T00:59:02.653Z,9.30
2022-11-16T01:00:02.685Z,9.30
2022-11-16T01:01:02.974Z,9.30
2022-11-16T01:02:02.877Z,9.30
2022-11-16T01:03:02.982Z,9.30
2022-11-16T01:04:03.059Z,9.30
2022-11-16T01:05:03.021Z,9.30
2022-11-16T01:06:03.104Z,9.30
2022-11-16T01:07:03.200Z,9.30
2022-11-16T01:08:03.126Z,9.30
2022-11-16T01:09:03.286Z,9.30
2022-11-16T01:10:03.399Z,9.30
2022-11-16T01:11:02.607Z,9.20
2022-11-16T01:12:03.099Z,9.20
2022-11-16T01:13:03.372Z,9.20
2022-11-16T01:14:03.602Z,9.20
2022-11-16T01:15:07.787Z,9.20
2022-11-16T01:16:03.278Z,9.20
2022-11-16T01:17:03.338Z,9.20
2022-11-16T01:18:08.832Z,9.20
2022-11-16T01:19:03.150Z,9.20
2022-11-16T01:20:03.060Z,9.20
2022-11-16T01:21:03.501Z,9.20
2022-11-16T01:22:03.880Z,9.20
2022-11-16T01:23:07.838Z,9.10
2022-11-16T01:24:03.055Z,9.20
2022-11-16T01:25:03.521Z,9.10
2022-11-16T01:26:03.965Z,9.10
2022-11-16T01:28:02.949Z,9.10
2022-11-16T01:30:08.651Z,9.10
2022-11-16T01:31:02.904Z,9.10
2022-11-16T01:32:02.718Z,9.10
2022-11-16T01:34:08.185Z,9.10
2022-11-16T01:35:03.333Z,9.00
2022-11-16T01:36:03.408Z,9.00
2022-11-16T01:37:03.598Z,9.00
2022-11-16T01:38:02.904Z,9.00
2022-11-16T01:39:03.471Z,9.00
2022-11-16T01:40:03.501Z,9.00
2022-11-16T01:41:03.943Z,9.00
2022-11-16T01:42:02.818Z,9.00
2022-11-16T01:43:03.227Z,9.00
2022-11-16T01:44:08.889Z,9.00
2022-11-16T01:45:02.763Z,9.00
2022-11-16T01:46:03.228Z,9.00
2022-11-16T01:47:03.416Z,9.00
2022-11-16T01:48:02.885Z,9.00
2022-11-16T01:49:03.056Z,9.00
2022-11-16T01:50:03.539Z,8.90
2022-11-16T01:51:08.634Z,8.90
2022-11-16T01:52:04.017Z,8.90
2022-11-16T01:53:02.999Z,8.90
2022-11-16T01:54:03.230Z,8.90
2022-11-16T01:55:03.639Z,8.90
2022-11-16T01:56:03.206Z,8.90
2022-11-16T01:57:03.626Z,8.90
2022-11-16T01:58:07.951Z,8.90
2022-11-16T01:59:03.249Z,8.80
2022-11-16T02:00:03.558Z,8.80
2022-11-16T02:01:04.095Z,8.80
2022-11-16T02:02:02.785Z,8.80
2022-11-16T02:03:03.098Z,8.80
2022-11-16T02:04:03.323Z,8.80
2022-11-16T02:05:03.558Z,8.80
2022-11-16T02:06:02.733Z,8.80
2022-11-16T02:07:07.990Z,8.70
2022-11-16T02:08:03.231Z,8.70
2022-11-16T02:09:03.488Z,8.70
2022-11-16T02:10:03.394Z,8.70
2022-11-16T02:11:03.502Z,8.70
2022-11-16T02:12:03.454Z,8.60
2022-11-16T02:13:03.594Z,8.60
2022-11-16T02:14:03.492Z,8.60
2022-11-16T02:15:03.561Z,8.60
2022-11-16T02:16:03.533Z,8.60
2022-11-16T02:17:02.693Z,8.60
2022-11-16T02:18:03.008Z,8.60
2022-11-16T02:19:03.053Z,8.60
2022-11-16T02:20:03.052Z,8.60
2022-11-16T02:21:03.066Z,8.50
2022-11-16T02:22:03.173Z,8.50
2022-11-16T02:23:03.153Z,8.50
2022-11-16T02:24:03.076Z,8.50
2022-11-16T02:25:03.195Z,8.50
2022-11-16T02:26:03.310Z,8.50
2022-11-16T02:27:03.403Z,8.50
2022-11-16T02:28:03.432Z,8.50
2022-11-16T02:29:03.454Z,8.50
2022-11-16T02:30:03.504Z,8.40
2022-11-16T02:31:03.417Z,8.40
2022-11-16T02:32:03.458Z,8.40
2022-11-16T02:33:03.537Z,8.40
2022-11-16T02:34:03.609Z,8.40
2022-11-16T02:35:02.712Z,8.40
2022-11-16T02:36:02.744Z,8.40
2022-11-16T02:37:02.814Z,8.40
2022-11-16T02:38:02.874Z,8.40
2022-11-16T02:39:02.991Z,8.40
2022-11-16T02:40:03.058Z,8.40
2022-11-16T02:41:03.187Z,8.40
2022-11-16T02:42:03.117Z,8.40
2022-11-16T02:43:03.187Z,8.30
2022-11-16T02:44:03.268Z,8.30
2022-11-16T02:45:03.225Z,8.30
2022-11-16T02:46:03.221Z,8.30
2022-11-16T02:47:03.306Z,8.30
2022-11-16T02:48:03.556Z,8.30
2022-11-16T02:49:03.561Z,8.30
2022-11-16T02:50:03.542Z,8.30
2022-11-16T02:51:02.697Z,8.30
2022-11-16T02:52:02.732Z,8.30
2022-11-16T02:53:02.815Z,8.30
2022-11-16T02:54:02.871Z,8.30
2022-11-16T02:55:02.746Z,8.30
2022-11-16T02:56:02.907Z,8.30
2022-11-16T02:57:02.868Z,8.30
2022-11-16T02:58:03.012Z,8.30
2022-11-16T02:59:03.125Z,8.30
2022-11-16T03:00:03.258Z,8.30
2022-11-16T03:01:03.454Z,8.30
2022-11-16T03:02:03.333Z,8.30
2022-11-16T03:03:03.435Z,8.30
2022-11-16T03:04:03.565Z,8.30
2022-11-16T03:05:02.690Z,8.30
2022-11-16T03:06:02.656Z,8.30
2022-11-16T03:07:02.696Z,8.30
2022-11-16T03:08:02.791Z,8.30
2022-11-16T03:09:03.024Z,8.30
2022-11-16T03:10:02.948Z,8.30
2022-11-16T03:11:02.906Z,8.30
2022-11-16T03:12:03.008Z,8.30
2022-11-16T03:13:03.056Z,8.20
2022-11-16T03:14:03.001Z,8.20
2022-11-16T03:15:03.147Z,8.20
2022-11-16T03:16:03.227Z,8.30
2022-11-16T03:17:03.306Z,8.20
2022-11-16T03:18:03.442Z,8.20
2022-11-16T03:19:03.498Z,8.20
2022-11-16T03:21:02.884Z,8.20
2022-11-16T03:22:03.012Z,8.20
2022-11-16T03:23:03.064Z,8.20
2022-11-16T03:24:03.180Z,8.20
2022-11-16T03:25:03.133Z,8.30
2022-11-16T03:26:03.206Z,8.30
2022-11-16T03:27:03.202Z,8.30
2022-11-16T03:28:03.181Z,8.30
2022-11-16T03:29:03.232Z,8.30
2022-11-16T03:30:03.394Z,8.30
2022-11-16T03:31:03.379Z,8.30
2022-11-16T03:32:03.356Z,8.30
2022-11-16T03:33:03.366Z,8.30
2022-11-16T03:34:03.505Z,8.30
2022-11-16T03:35:03.582Z,8.30
2022-11-16T03:36:03.492Z,8.30
2022-11-16T03:37:03.621Z,8.30
2022-11-16T03:38:02.713Z,8.30
2022-11-16T03:39:02.667Z,8.20
2022-11-16T03:40:02.726Z,8.30
2022-11-16T03:41:02.660Z,8.20
2022-11-16T03:42:02.693Z,8.30
2022-11-16T03:43:02.623Z,8.30
2022-11-16T03:44:02.745Z,8.20
2022-11-16T03:45:03.101Z,8.20
2022-11-16T03:46:03.102Z,8.20
2022-11-16T03:47:03.234Z,8.20
2022-11-16T03:48:03.138Z,8.20
2022-11-16T03:49:03.191Z,8.20
2022-11-16T03:50:03.486Z,8.20
2022-11-16T03:51:03.495Z,8.20
2022-11-16T03:52:03.522Z,8.20
2022-11-16T03:53:03.511Z,8.20
2022-11-16T03:54:03.563Z,8.20
2022-11-16T03:55:03.528Z,8.20
2022-11-16T03:56:03.507Z,8.20
2022-11-16T03:57:03.449Z,8.20
2022-11-16T03:58:03.400Z,8.20
2022-11-16T03:59:03.521Z,8.20
2022-11-16T04:00:03.545Z,8.20
2022-11-16T04:01:03.213Z,8.20
2022-11-16T04:02:02.974Z,8.20
2022-11-16T04:03:03.017Z,8.20
2022-11-16T04:04:03.049Z,8.20
2022-11-16T04:05:03.024Z,8.20
2022-11-16T04:06:03.108Z,8.20
2022-11-16T04:07:03.548Z,8.20
2022-11-16T04:08:03.480Z,8.20
2022-11-16T04:09:03.505Z,8.10
2022-11-16T04:10:03.590Z,8.20
2022-11-16T04:11:02.603Z,8.10
2022-11-16T04:12:02.736Z,8.10
2022-11-16T04:13:02.822Z,8.10
2022-11-16T04:14:06.592Z,8.10
2022-11-16T04:15:03.470Z,8.10
2022-11-16T04:16:03.483Z,8.10
2022-11-16T04:17:03.540Z,8.10
2022-11-16T04:18:02.658Z,8.10
2022-11-16T04:19:02.753Z,8.10
2022-11-16T04:20:02.736Z,8.10
2022-11-16T04:21:02.675Z,8.10
2022-11-16T04:22:02.706Z,8.10
2022-11-16T04:23:03.198Z,8.10
2022-11-16T04:24:03.275Z,8.10
2022-11-16T04:25:03.303Z,8.10
2022-11-16T04:26:03.304Z,8.10
2022-11-16T04:27:03.446Z,8.10
2022-11-16T04:28:03.451Z,8.10
2022-11-16T04:29:03.409Z,8.10
2022-11-16T04:30:03.380Z,8.10
2022-11-16T04:31:03.456Z,8.10
2022-11-16T04:32:03.576Z,8.10
2022-11-16T04:33:03.227Z,8.10
2022-11-16T04:34:03.455Z,8.10
2022-11-16T04:35:03.239Z,8.10
2022-11-16T04:36:03.336Z,8.10
2022-11-16T04:37:03.363Z,8.10
2022-11-16T04:38:03.273Z,8.10
2022-11-16T04:39:03.362Z,8.10
2022-11-16T04:40:03.410Z,8.10
2022-11-16T04:41:03.532Z,8.10
2022-11-16T04:42:03.485Z,8.10
2022-11-16T04:43:03.622Z,8.10
2022-11-16T04:44:03.550Z,8.00
2022-11-16T04:45:03.568Z,8.10
2022-11-16T04:46:03.492Z,8.00
2022-11-16T04:47:03.538Z,8.00
2022-11-16T04:48:03.596Z,8.00
2022-11-16T04:49:02.613Z,8.00
2022-11-16T04:50:03.634Z,8.00
2022-11-16T04:51:03.587Z,8.00
2022-11-16T04:52:03.646Z,8.00
2022-11-16T04:53:02.682Z,8.00
2022-11-16T04:54:02.659Z,8.00
2022-11-16T04:55:02.946Z,8.00
2022-11-16T04:56:02.961Z,8.00
2022-11-16T04:57:02.897Z,8.00
2022-11-16T04:58:02.867Z,8.00
2022-11-16T04:59:02.999Z,8.00
2022-11-16T05:00:03.015Z,8.10
2022-11-16T05:01:03.066Z,8.10
2022-11-16T05:02:03.233Z,8.10
2022-11-16T05:03:03.316Z,8.10
2022-11-16T05:04:03.348Z,8.10
2022-11-16T05:05:03.411Z,8.10
2022-11-16T05:06:03.362Z,8.10
2022-11-16T05:07:03.427Z,8.10
2022-11-16T05:08:03.348Z,8.10
2022-11-16T05:09:03.428Z,8.10
2022-11-16T05:10:03.413Z,8.10
2022-11-16T05:11:03.494Z,8.10
2022-11-16T05:12:03.582Z,8.10
2022-11-16T05:13:03.613Z,8.10
2022-11-16T05:14:03.593Z,8.10
2022-11-16T05:15:03.575Z,8.10
2022-11-16T05:16:02.763Z,8.10
2022-11-16T05:17:02.815Z,8.10
2022-11-16T05:18:02.876Z,8.00
2022-11-16T05:19:02.860Z,8.00
2022-11-16T05:20:03.024Z,8.10
2022-11-16T05:21:02.988Z,8.00
2022-11-16T05:22:03.385Z,8.00
2022-11-16T05:23:02.765Z,8.00
2022-11-16T05:24:02.713Z,8.00
2022-11-16T05:25:03.161Z,8.00
2022-11-16T05:26:03.045Z,8.00
2022-11-16T05:27:02.924Z,8.00
2022-11-16T05:28:03.021Z,8.00
2022-11-16T05:29:03.168Z,8.00
2022-11-16T05:30:03.165Z,8.00
2022-11-16T05:31:03.166Z,8.00
2022-11-16T05:32:03.181Z,8.00
2022-11-16T05:33:03.311Z,8.00
2022-11-16T05:34:03.250Z,8.00
2022-11-16T05:35:03.203Z,8.00
2022-11-16T05:36:03.288Z,8.00
2022-11-16T05:37:03.425Z,8.00
2022-11-16T05:38:03.381Z,8.00
2022-11-16T05:39:02.632Z,8.00
2022-11-16T05:40:02.768Z,8.00
2022-11-16T05:41:02.738Z,8.00
2022-11-16T05:42:03.326Z,8.00
2022-11-16T05:43:03.200Z,8.00
2022-11-16T05:44:03.423Z,8.00
2022-11-16T05:45:03.429Z,7.90
2022-11-16T05:46:03.510Z,7.90
2022-11-16T05:47:03.462Z,7.90
2022-11-16T05:48:03.545Z,7.80
2022-11-16T05:49:03.614Z,7.80
2022-11-16T05:50:02.665Z,7.80
2022-11-16T05:51:02.676Z,7.80
2022-11-16T05:52:02.731Z,7.80
2022-11-16T05:53:02.834Z,7.80
2022-11-16T05:54:02.772Z,7.80
2022-11-16T05:55:02.747Z,7.70
2022-11-16T05:56:02.855Z,7.70
2022-11-16T05:57:02.900Z,7.70
2022-11-16T05:58:02.904Z,7.70
2022-11-16T05:59:02.943Z,7.70
2022-11-16T06:00:03.012Z,7.70
2022-11-16T06:01:02.965Z,7.70
2022-11-16T06:02:03.132Z,7.70
2022-11-16T06:03:03.149Z,7.70
2022-11-16T06:04:03.077Z,7.70
2022-11-16T06:05:03.152Z,7.70
2022-11-16T06:06:03.179Z,7.70
2022-11-16T06:07:03.323Z,7.70
2022-11-16T06:08:03.169Z,7.70
2022-11-16T06:09:03.178Z,7.70
2022-11-16T06:10:03.160Z,7.70
2022-11-16T06:11:03.259Z,7.70
2022-11-16T06:12:03.527Z,7.70
2022-11-16T06:13:03.465Z,7.70
2022-11-16T06:14:03.433Z,7.70
2022-11-16T06:15:03.509Z,7.70
2022-11-16T06:16:03.390Z,7.70
2022-11-16T06:17:03.489Z,7.70
2022-11-16T06:18:03.641Z,7.70
2022-11-16T06:19:02.628Z,7.70
2022-11-16T06:20:02.646Z,7.70
2022-11-16T06:21:03.619Z,7.70
2022-11-16T06:22:03.575Z,7.70
2022-11-16T06:23:03.603Z,7.70
2022-11-16T06:24:03.550Z,7.70
2022-11-16T06:25:02.669Z,7.70
2022-11-16T06:26:02.732Z,7.70
2022-11-16T06:27:02.741Z,7.70
2022-11-16T06:28:06.723Z,7.70
2022-11-16T06:29:02.826Z,7.70
2022-11-16T06:30:02.886Z,7.70
2022-11-16T06:31:02.961Z,7.70
2022-11-16T06:32:02.954Z,7.70
2022-11-16T06:33:03.063Z,7.70
2022-11-16T06:34:02.925Z,7.70
2022-11-16T06:35:03.029Z,7.70
2022-11-16T06:36:02.987Z,7.70
2022-11-16T06:37:03.383Z,7.70
2022-11-16T06:38:03.312Z,7.70
2022-11-16T06:39:03.253Z,7.70
2022-11-16T06:40:03.440Z,7.70
2022-11-16T06:41:03.451Z,7.70
2022-11-16T06:42:03.465Z,7.70
2022-11-16T06:43:02.662Z,7.70
2022-11-16T06:44:02.703Z,7.70
2022-11-16T06:45:02.676Z,7.70
2022-11-16T06:46:02.737Z,7.70
2022-11-16T06:47:02.804Z,7.70
2022-11-16T06:48:03.611Z,7.70
2022-11-16T06:49:03.632Z,7.60
2022-11-16T06:50:02.773Z,7.60
2022-11-16T06:51:02.838Z,7.60
2022-11-16T06:52:02.827Z,7.60
2022-11-16T06:53:02.765Z,7.60
2022-11-16T06:54:02.800Z,7.60
2022-11-16T06:55:02.830Z,7.60
2022-11-16T06:56:02.843Z,7.60
2022-11-16T06:57:02.917Z,7.60
2022-11-16T06:58:02.912Z,7.60
2022-11-16T06:59:02.909Z,7.60
2022-11-16T07:00:03.106Z,7.60
2022-11-16T07:01:03.087Z,7.60
2022-11-16T07:02:03.307Z,7.60
2022-11-16T07:03:03.286Z,7.60
2022-11-16T07:04:03.425Z,7.60
2022-11-16T07:05:04.015Z,7.60
2022-11-16T07:06:03.481Z,7.60
2022-11-16T07:07:03.535Z,7.60
2022-11-16T07:08:03.422Z,7.60
2022-11-16T07:09:03.459Z,7.60
2022-11-16T07:10:03.589Z,7.60
2022-11-16T07:11:04.241Z,7.60
2022-11-16T07:12:02.791Z,7.60
2022-11-16T07:13:02.815Z,7.60
2022-11-16T07:14:02.848Z,7.60
2022-11-16T07:15:02.731Z,7.60
2022-11-16T07:16:02.865Z,7.60
2022-11-16T07:17:06.609Z,7.60
2022-11-16T07:18:02.821Z,7.60
2022-11-16T07:19:02.935Z,7.60
2022-11-16T07:20:02.963Z,7.60
2022-11-16T07:21:02.959Z,7.60
2022-11-16T07:22:02.899Z,7.60
2022-11-16T07:23:02.965Z,7.60
2022-11-16T07:24:02.798Z,7.60
2022-11-16T07:25:02.891Z,7.60
2022-11-16T07:26:03.072Z,7.60
2022-11-16T07:27:03.074Z,7.60
2022-11-16T07:28:03.166Z,7.60
2022-11-16T07:29:03.234Z,7.60
2022-11-16T07:30:03.255Z,7.60
2022-11-16T07:31:03.273Z,7.60
2022-11-16T07:32:03.443Z,7.60
2022-11-16T07:33:03.438Z,7.60
2022-11-16T07:34:03.430Z,7.60
2022-11-16T07:35:03.494Z,7.60
2022-11-16T07:36:03.535Z,7.60
2022-11-16T07:37:03.626Z,7.60
2022-11-16T07:38:03.597Z,7.70
2022-11-16T07:39:02.692Z,7.70
2022-11-16T07:40:02.872Z,7.70
2022-11-16T07:41:02.960Z,7.70
2022-11-16T07:42:02.914Z,7.70
2022-11-16T07:43:03.007Z,7.60
2022-11-16T07:44:03.135Z,7.60
2022-11-16T07:45:03.120Z,7.60
2022-11-16T07:46:21.479Z,7.60
2022-11-16T07:47:03.560Z,7.60
2022-11-16T07:48:02.645Z,7.60
2022-11-16T07:49:05.896Z,7.60
2022-11-16T07:50:03.133Z,7.60
2022-11-16T07:51:03.186Z,7.60
2022-11-16T07:52:03.210Z,7.60
2022-11-16T07:53:03.174Z,7.60
2022-11-16T07:54:03.233Z,7.50
2022-11-16T07:55:03.420Z,7.50
2022-11-16T07:56:03.346Z,7.50
2022-11-16T07:57:03.522Z,7.50
2022-11-16T07:58:03.466Z,7.50
2022-11-16T07:59:03.569Z,7.40
2022-11-16T08:00:03.512Z,7.40
2022-11-16T08:01:03.565Z,7.40
2022-11-16T08:02:03.737Z,7.40
2022-11-16T08:03:02.678Z,7.40
2022-11-16T08:04:02.822Z,7.40
2022-11-16T08:05:02.839Z,7.30
2022-11-16T08:06:02.948Z,7.30
2022-11-16T08:07:03.152Z,7.30
2022-11-16T08:08:03.279Z,7.30
2022-11-16T08:09:03.302Z,7.30
2022-11-16T08:10:03.319Z,7.30
2022-11-16T08:11:03.354Z,7.20
2022-11-16T08:12:03.476Z,7.20
2022-11-16T08:13:02.768Z,7.20
2022-11-16T08:14:02.870Z,7.20
2022-11-16T08:15:02.975Z,7.20
2022-11-16T08:16:02.940Z,7.10
2022-11-16T08:17:03.308Z,7.10
2022-11-16T08:18:03.216Z,7.10
2022-11-16T08:19:03.413Z,7.10
2022-11-16T08:20:02.739Z,7.10
2022-11-16T08:21:03.205Z,7.10
2022-11-16T08:22:03.306Z,7.10
2022-11-16T08:23:03.459Z,7.10
2022-11-16T08:24:03.555Z,7.10
2022-11-16T08:25:03.754Z,7.10
2022-11-16T08:26:02.675Z,7.10
2022-11-16T08:27:03.069Z,7.10
2022-11-16T08:28:03.411Z,7.10
2022-11-16T08:29:03.595Z,7.10
2022-11-16T08:30:02.970Z,7.10
2022-11-16T08:31:02.950Z,7.10
2022-11-16T08:32:02.905Z,7.10
2022-11-16T08:33:02.978Z,7.10
2022-11-16T08:34:03.068Z,7.10
2022-11-16T08:35:03.182Z,7.10
2022-11-16T08:36:03.162Z,7.10
2022-11-16T08:37:03.230Z,7.10
2022-11-16T08:38:03.237Z,7.10
2022-11-16T08:39:03.153Z,7.10
2022-11-16T08:40:03.263Z,7.10
2022-11-16T08:41:03.352Z,7.10
2022-11-16T08:42:03.384Z,7.10
2022-11-16T08:43:02.756Z,7.10
2022-11-16T08:44:02.965Z,7.10
2022-11-16T08:45:02.891Z,7.10
2022-11-16T08:46:02.865Z,7.10
2022-11-16T08:47:02.901Z,7.10
2022-11-16T08:48:04.150Z,7.10
2022-11-16T08:49:02.987Z,7.10
2022-11-16T08:50:03.063Z,7.10
2022-11-16T08:51:16.751Z,7.10
2022-11-16T08:52:03.293Z,7.10
2022-11-16T08:53:03.321Z,7.10
2022-11-16T08:54:03.336Z,7.10
2022-11-16T08:55:03.435Z,7.10
2022-11-16T08:56:03.444Z,7.10
2022-11-16T08:57:03.601Z,7.10
2022-11-16T08:58:03.608Z,7.10
2022-11-16T08:59:02.767Z,7.10
2022-11-16T09:00:02.741Z,7.10
2022-11-16T09:01:02.962Z,7.10
2022-11-16T09:02:03.098Z,7.10
2022-11-16T09:03:03.484Z,7.10
2022-11-16T09:04:02.813Z,7.10
2022-11-16T09:05:02.938Z,7.10
2022-11-16T09:06:03.028Z,7.20
2022-11-16T09:07:03.349Z,7.20
2022-11-16T09:08:03.256Z,7.20
2022-11-16T09:09:03.274Z,7.20
2022-11-16T09:10:03.575Z,7.20
2022-11-16T09:11:03.647Z,7.20
2022-11-16T09:12:02.797Z,7.20
2022-11-16T09:13:03.901Z,7.20
2022-11-16T09:14:03.607Z,7.20
2022-11-16T09:15:02.789Z,7.20
2022-11-16T09:16:02.783Z,7.20
2022-11-16T09:17:02.944Z,7.20
2022-11-16T09:18:03.235Z,7.20
2022-11-16T09:19:03.232Z,7.20
2022-11-16T09:20:03.296Z,7.20
2022-11-16T09:21:03.498Z,7.20
2022-11-16T09:22:03.444Z,7.20
2022-11-16T09:23:03.542Z,7.20
2022-11-16T09:24:03.468Z,7.20
2022-11-16T09:25:03.577Z,7.20
2022-11-16T09:26:03.647Z,7.20
2022-11-16T09:27:02.724Z,7.20
2022-11-16T09:28:02.769Z,7.20
2022-11-16T09:29:02.747Z,7.20
2022-11-16T09:30:03.578Z,7.20
2022-11-16T09:31:02.910Z,7.20
2022-11-16T09:32:02.894Z,7.20
2022-11-16T09:33:03.586Z,7.20
2022-11-16T09:34:02.982Z,7.20
2022-11-16T09:35:03.125Z,7.20
2022-11-16T09:36:03.261Z,7.20
2022-11-16T09:37:03.417Z,7.20
2022-11-16T09:38:03.429Z,7.20
2022-11-16T09:39:29.379Z,7.30
2022-11-16T09:40:03.695Z,7.30
2022-11-16T09:41:03.481Z,7.30
2022-11-16T09:42:02.909Z,7.30
2022-11-16T09:43:02.834Z,7.30
2022-11-16T09:44:03.158Z,7.30
2022-11-16T09:45:03.382Z,7.30
2022-11-16T09:46:02.856Z,7.30
2022-11-16T09:47:02.722Z,7.30
2022-11-16T09:48:02.848Z,7.40
2022-11-16T09:49:03.093Z,7.40
2022-11-16T09:50:03.339Z,7.40
2022-11-16T09:51:02.952Z,7.40
2022-11-16T09:52:03.101Z,7.40
2022-11-16T09:53:03.198Z,7.40
2022-11-16T09:54:03.405Z,7.40
2022-11-16T09:55:03.479Z,7.40
2022-11-16T09:56:02.906Z,7.40
2022-11-16T09:57:05.602Z,7.50
2022-11-16T09:58:03.327Z,7.50
2022-11-16T09:59:03.562Z,7.50
2022-11-16T10:00:02.938Z,7.50
2022-11-16T10:01:03.314Z,7.50
2022-11-16T10:02:03.583Z,7.50
2022-11-16T10:03:03.609Z,7.50
2022-11-16T10:04:02.642Z,7.50
2022-11-16T10:05:02.968Z,7.50
2022-11-16T10:06:03.312Z,7.60
2022-11-16T10:07:03.440Z,7.60
2022-11-16T10:08:03.615Z,7.60
2022-11-16T10:09:02.667Z,7.60
2022-11-16T10:10:02.665Z,7.60
2022-11-16T10:11:02.604Z,7.60
2022-11-16T10:12:02.872Z,7.60
2022-11-16T10:13:03.060Z,7.60
2022-11-16T10:14:04.297Z,7.60
2022-11-16T10:15:03.319Z,7.70
2022-11-16T10:16:02.637Z,7.70
2022-11-16T10:17:02.892Z,7.70
2022-11-16T10:18:02.953Z,7.70
2022-11-16T10:19:03.051Z,7.70
2022-11-16T10:20:02.998Z,7.70
2022-11-16T10:21:03.280Z,7.80
2022-11-16T10:22:03.615Z,7.80
2022-11-16T10:23:02.818Z,7.80
2022-11-16T10:24:02.698Z,7.80
2022-11-16T10:25:02.885Z,7.80
2022-11-16T10:26:03.111Z,7.90
2022-11-16T10:27:03.122Z,7.90
2022-11-16T10:28:03.249Z,7.90
2022-11-16T10:29:03.464Z,7.90
2022-11-16T10:30:02.790Z,8.00
2022-11-16T10:31:02.827Z,8.00
2022-11-16T10:32:02.916Z,8.00
2022-11-16T10:33:06.765Z,8.00
2022-11-16T10:34:03.210Z,8.00
2022-11-16T10:35:03.345Z,8.10
2022-11-16T10:36:02.754Z,8.10
2022-11-16T10:37:02.756Z,8.10
2022-11-16T10:38:02.779Z,8.10
2022-11-16T10:39:02.874Z,8.10
2022-11-16T10:40:03.034Z,8.20
2022-11-16T10:41:02.943Z,8.20
2022-11-16T10:42:07.202Z,8.20
2022-11-16T10:43:03.056Z,8.20
2022-11-16T10:44:03.355Z,8.20
2022-11-16T10:45:03.633Z,8.20
2022-11-16T10:46:02.670Z,8.20
2022-11-16T10:47:02.730Z,8.30
2022-11-16T10:48:02.779Z,8.30
2022-11-16T10:49:02.829Z,8.30
2022-11-16T10:50:02.941Z,8.30
2022-11-16T10:51:02.945Z,8.30
2022-11-16T10:52:03.132Z,8.30
2022-11-16T10:53:03.236Z,8.30
2022-11-16T10:54:03.446Z,8.30
2022-11-16T10:55:03.592Z,8.30
2022-11-16T10:56:02.642Z,8.30
2022-11-16T10:57:02.818Z,8.40
2022-11-16T10:58:02.879Z,8.40
2022-11-16T10:59:02.935Z,8.40
2022-11-16T11:00:03.005Z,8.40
2022-11-16T11:01:03.037Z,8.40
2022-11-16T11:03:03.441Z,8.50
2022-11-16T11:04:03.456Z,8.50
2022-11-16T11:05:02.654Z,8.50
2022-11-16T11:06:02.863Z,8.50
2022-11-16T11:07:03.032Z,8.50
2022-11-16T11:08:03.319Z,8.50
2022-11-16T11:09:03.341Z,8.60
2022-11-16T11:10:03.341Z,8.60
2022-11-16T11:11:03.259Z,8.60
2022-11-16T11:12:03.444Z,8.60
2022-11-16T11:13:03.585Z,8.60
2022-11-16T11:14:03.532Z,8.60
2022-11-16T11:15:03.619Z,8.70
2022-11-16T11:16:03.651Z,8.70
2022-11-16T11:17:03.625Z,8.70
2022-11-16T11:18:02.759Z,8.70
2022-11-16T11:19:02.857Z,8.70
2022-11-16T11:20:03.073Z,8.70
2022-11-16T11:21:02.971Z,8.70
2022-11-16T11:22:03.079Z,8.70
2022-11-16T11:23:03.087Z,8.80
2022-11-16T11:24:29.585Z,8.80
2022-11-16T11:25:02.899Z,8.80
2022-11-16T11:26:03.250Z,8.80
2022-11-16T11:27:03.275Z,8.80
2022-11-16T11:28:03.284Z,8.80
2022-11-16T11:29:03.356Z,8.80
2022-11-16T11:30:03.467Z,8.80
2022-11-16T11:31:03.494Z,8.80
2022-11-16T11:32:03.486Z,8.80
2022-11-16T11:33:03.525Z,8.80
2022-11-16T11:34:02.703Z,8.80
2022-11-16T11:35:02.928Z,8.80
2022-11-16T11:36:02.868Z,8.80
2022-11-16T11:37:02.872Z,8.90
2022-11-16T11:38:07.595Z,8.90
2022-11-16T11:39:03.243Z,8.90
2022-11-16T11:40:03.399Z,8.90
2022-11-16T11:41:03.414Z,8.90
2022-11-16T11:42:03.549Z,8.90
2022-11-16T11:43:03.642Z,8.90
2022-11-16T11:44:02.785Z,9.00
2022-11-16T11:45:02.878Z,9.00
2022-11-16T11:46:03.081Z,9.00
2022-11-16T11:47:50.708Z,9.00
2022-11-16T11:48:02.290Z,9.00
2022-11-16T11:49:03.524Z,9.00
2022-11-16T11:50:03.639Z,9.00
2022-11-16T11:51:02.609Z,9.00
2022-11-16T11:52:02.855Z,9.00
2022-11-16T11:53:03.024Z,9.00
2022-11-16T11:54:03.298Z,9.00
2022-11-16T11:55:03.380Z,9.00
2022-11-16T11:56:03.472Z,9.00
2022-11-16T11:57:03.458Z,9.00
2022-11-16T11:58:03.473Z,9.00
2022-11-16T11:59:03.494Z,9.00
2022-11-16T12:00:02.903Z,9.00
2022-11-16T12:01:02.931Z,9.00
2022-11-16T12:02:03.108Z,9.00
2022-11-16T12:03:03.350Z,9.00
2022-11-16T12:04:03.559Z,9.00
2022-11-16T12:05:03.576Z,9.00
2022-11-16T12:06:02.644Z,9.00
2022-11-16T12:07:02.844Z,9.10
2022-11-16T12:08:03.039Z,9.10
2022-11-16T12:09:03.159Z,9.10
2022-11-16T12:10:03.432Z,9.10
2022-11-16T12:11:03.508Z,9.10
2022-11-16T12:12:03.598Z,9.10
2022-11-16T12:13:02.991Z,9.10
2022-11-16T12:14:03.034Z,9.10
2022-11-16T12:15:03.176Z,9.10
2022-11-16T12:16:03.277Z,9.10
2022-11-16T12:17:03.390Z,9.10
2022-11-16T12:18:03.321Z,9.20
2022-11-16T12:19:02.757Z,9.10
2022-11-16T12:20:02.768Z,9.20
2022-11-16T12:21:02.855Z,9.20
2022-11-16T12:22:02.850Z,9.20
2022-11-16T12:23:04.303Z,9.20
2022-11-16T12:24:03.204Z,9.20
2022-11-16T12:25:03.484Z,9.20
2022-11-16T12:26:02.759Z,9.20
2022-11-16T12:27:03.089Z,9.20
2022-11-16T12:28:03.411Z,9.20
2022-11-16T12:29:03.613Z,9.20
2022-11-16T12:30:02.834Z,9.20
2022-11-16T12:31:02.860Z,9.20
2022-11-16T12:32:02.986Z,9.20
2022-11-16T12:33:03.170Z,9.20
2022-11-16T12:34:03.282Z,9.20
2022-11-16T12:35:03.716Z,9.20
2022-11-16T12:36:03.675Z,9.20
2022-11-16T12:37:02.830Z,9.20
2022-11-16T12:38:02.972Z,9.20
2022-11-16T12:39:02.929Z,9.20
2022-11-16T12:40:03.041Z,9.20
2022-11-16T12:41:03.284Z,9.20
2022-11-16T12:42:02.800Z,9.20
2022-11-16T12:43:02.787Z,9.20
2022-11-16T12:44:02.944Z,9.20
2022-11-16T12:45:03.302Z,9.20
2022-11-16T12:46:03.081Z,9.20
2022-11-16T12:47:03.080Z,9.20
2022-11-16T12:48:03.221Z,9.20
2022-11-16T12:49:03.478Z,9.20
2022-11-16T12:50:02.696Z,9.20
2022-11-16T12:51:02.822Z,9.20
2022-11-16T12:52:02.834Z,9.20
2022-11-16T12:53:03.041Z,9.20
2022-11-16T12:54:03.388Z,9.20
2022-11-16T12:55:26.226Z,9.20
2022-11-16T12:56:03.616Z,9.20
2022-11-16T12:57:03.667Z,9.20
2022-11-16T12:58:02.778Z,9.20
2022-11-16T12:59:02.980Z,9.20
2022-11-16T13:00:03.038Z,9.20
2022-11-16T13:01:03.501Z,9.20
2022-11-16T13:02:03.190Z,9.20
2022-11-16T13:03:03.429Z,9.20
2022-11-16T13:04:02.854Z,9.20
2022-11-16T13:05:02.928Z,9.20
2022-11-16T13:06:03.060Z,9.20
2022-11-16T13:07:06.544Z,9.20
2022-11-16T13:08:03.247Z,9.20
2022-11-16T13:09:03.260Z,9.20
2022-11-16T13:10:03.293Z,9.20
2022-11-16T13:11:03.308Z,9.30
2022-11-16T13:12:03.306Z,9.30
2022-11-16T13:13:30.072Z,9.30
2022-11-16T13:14:03.151Z,9.30
2022-11-16T13:15:03.079Z,9.30
2022-11-16T13:16:03.103Z,9.30
2022-11-16T13:17:03.109Z,9.30
2022-11-16T13:18:03.189Z,9.30
2022-11-16T13:19:03.145Z,9.30
2022-11-16T13:20:03.132Z,9.30
2022-11-16T13:21:03.285Z,9.30
2022-11-16T13:22:03.310Z,9.30
2022-11-16T13:23:03.268Z,9.30
2022-11-16T13:24:03.423Z,9.30
2022-11-16T13:25:03.521Z,9.30